sensor_id;sensor_type;location;lat;lon;timestamp;P1;durP1;ratioP1;P2;durP2;ratioP2
73684;SDS011;61985;51.070;14.064;2023-06-22T00:01:21;10.40;;;7.10;;
73684;SDS011;61985;51.070;14.064;2023-06-22T00:03:47;10.57;;;7.03;;
73684;SDS011;61985;51.070;14.064;2023-06-22T00:06:13;12.95;;;7.40;;
73684;SDS011;61985;51.070;14.064;2023-06-22T00:08:38;9.05;;;6.10;;
73684;SDS011;61985;51.070;14.064;2023-06-22T00:11:03;9.10;;;5.53;;
73684;SDS011;61985;51.070;14.064;2023-06-22T00:13:28;9.18;;;5.93;;
73684;SDS011;61985;51.070;14.064;2023-06-22T00:15:54;9.93;;;5.75;;
73684;SDS011;61985;51.070;14.064;2023-06-22T00:18:19;10.48;;;6.32;;
73684;SDS011;61985;51.070;14.064;2023-06-22T00:20:45;10.45;;;6.47;;
73684;SDS011;61985;51.070;14.064;2023-06-22T00:23:10;11.07;;;5.85;;
73684;SDS011;61985;51.070;14.064;2023-06-22T00:25:36;9.75;;;5.90;;
73684;SDS011;61985;51.070;14.064;2023-06-22T00:28:03;11.32;;;6.30;;
73684;SDS011;61985;51.070;14.064;2023-06-22T00:30:29;9.82;;;5.88;;
73684;SDS011;61985;51.070;14.064;2023-06-22T00:32:55;9.88;;;6.80;;
73684;SDS011;61985;51.070;14.064;2023-06-22T00:35:20;11.10;;;5.75;;
73684;SDS011;61985;51.070;14.064;2023-06-22T00:37:46;9.98;;;6.65;;
73684;SDS011;61985;51.070;14.064;2023-06-22T00:40:11;12.07;;;6.22;;
73684;SDS011;61985;51.070;14.064;2023-06-22T00:42:40;11.13;;;6.70;;
73684;SDS011;61985;51.070;14.064;2023-06-22T00:45:06;9.90;;;6.43;;
73684;SDS011;61985;51.070;14.064;2023-06-22T00:47:32;11.02;;;6.80;;
73684;SDS011;61985;51.070;14.064;2023-06-22T00:49:58;11.32;;;6.85;;
73684;SDS011;61985;51.070;14.064;2023-06-22T00:52:25;11.30;;;7.15;;
73684;SDS011;61985;51.070;14.064;2023-06-22T00:54:58;12.38;;;6.95;;
73684;SDS011;61985;51.070;14.064;2023-06-22T00:57:26;14.50;;;6.47;;
73684;SDS011;61985;51.070;14.064;2023-06-22T00:59:53;13.43;;;6.82;;
73684;SDS011;61985;51.070;14.064;2023-06-22T01:02:19;12.52;;;6.88;;
73684;SDS011;61985;51.070;14.064;2023-06-22T01:04:44;12.57;;;7.00;;
73684;SDS011;61985;51.070;14.064;2023-06-22T01:09:42;12.88;;;6.50;;
73684;SDS011;61985;51.070;14.064;2023-06-22T01:12:15;12.70;;;6.82;;
73684;SDS011;61985;51.070;14.064;2023-06-22T01:14:46;10.20;;;6.68;;
73684;SDS011;61985;51.070;14.064;2023-06-22T01:17:17;10.02;;;6.45;;
73684;SDS011;61985;51.070;14.064;2023-06-22T01:19:46;10.63;;;6.85;;
73684;SDS011;61985;51.070;14.064;2023-06-22T01:22:17;14.95;;;7.35;;
73684;SDS011;61985;51.070;14.064;2023-06-22T01:30:00;18.10;;;7.75;;
73684;SDS011;61985;51.070;14.064;2023-06-22T01:32:30;18.67;;;7.45;;
73684;SDS011;61985;51.070;14.064;2023-06-22T01:34:58;15.82;;;7.50;;
73684;SDS011;61985;51.070;14.064;2023-06-22T01:37:26;12.00;;;7.57;;
73684;SDS011;61985;51.070;14.064;2023-06-22T01:39:56;14.13;;;8.30;;
73684;SDS011;61985;51.070;14.064;2023-06-22T01:42:23;15.70;;;7.38;;
73684;SDS011;61985;51.070;14.064;2023-06-22T01:44:50;13.95;;;7.30;;
73684;SDS011;61985;51.070;14.064;2023-06-22T01:47:18;13.85;;;7.28;;
73684;SDS011;61985;51.070;14.064;2023-06-22T01:49:44;11.73;;;6.93;;
73684;SDS011;61985;51.070;14.064;2023-06-22T01:52:10;13.07;;;7.22;;
73684;SDS011;61985;51.070;14.064;2023-06-22T01:54:37;14.75;;;7.63;;
73684;SDS011;61985;51.070;14.064;2023-06-22T01:57:04;15.73;;;7.80;;
73684;SDS011;61985;51.070;14.064;2023-06-22T01:59:34;13.23;;;7.07;;
73684;SDS011;61985;51.070;14.064;2023-06-22T02:02:06;12.13;;;6.78;;
73684;SDS011;61985;51.070;14.064;2023-06-22T02:05:19;15.15;;;7.25;;
73684;SDS011;61985;51.070;14.064;2023-06-22T02:07:26;15.88;;;6.68;;
73684;SDS011;61985;51.070;14.064;2023-06-22T02:09:55;14.20;;;7.07;;
73684;SDS011;61985;51.070;14.064;2023-06-22T02:12:22;12.13;;;6.85;;
73684;SDS011;61985;51.070;14.064;2023-06-22T02:14:52;15.48;;;6.80;;
73684;SDS011;61985;51.070;14.064;2023-06-22T02:17:18;18.17;;;7.22;;
73684;SDS011;61985;51.070;14.064;2023-06-22T02:19:44;13.88;;;6.88;;
73684;SDS011;61985;51.070;14.064;2023-06-22T02:22:09;21.58;;;7.40;;
73684;SDS011;61985;51.070;14.064;2023-06-22T02:24:35;18.85;;;7.20;;
73684;SDS011;61985;51.070;14.064;2023-06-22T02:27:01;14.32;;;6.63;;
73684;SDS011;61985;51.070;14.064;2023-06-22T02:29:27;12.40;;;7.35;;
73684;SDS011;61985;51.070;14.064;2023-06-22T02:31:53;16.45;;;6.78;;
73684;SDS011;61985;51.070;14.064;2023-06-22T02:34:19;17.73;;;7.00;;
73684;SDS011;61985;51.070;14.064;2023-06-22T02:36:45;17.17;;;7.18;;
73684;SDS011;61985;51.070;14.064;2023-06-22T02:39:17;13.25;;;7.03;;
73684;SDS011;61985;51.070;14.064;2023-06-22T02:41:44;14.30;;;6.68;;
73684;SDS011;61985;51.070;14.064;2023-06-22T02:44:09;14.65;;;6.93;;
73684;SDS011;61985;51.070;14.064;2023-06-22T02:46:35;10.80;;;6.72;;
73684;SDS011;61985;51.070;14.064;2023-06-22T02:49:01;12.20;;;6.93;;
73684;SDS011;61985;51.070;14.064;2023-06-22T02:51:26;13.25;;;6.85;;
73684;SDS011;61985;51.070;14.064;2023-06-22T02:53:51;12.13;;;6.50;;
73684;SDS011;61985;51.070;14.064;2023-06-22T02:56:22;14.60;;;6.90;;
73684;SDS011;61985;51.070;14.064;2023-06-22T02:58:50;15.90;;;6.30;;
73684;SDS011;61985;51.070;14.064;2023-06-22T03:01:15;11.23;;;6.90;;
73684;SDS011;61985;51.070;14.064;2023-06-22T03:03:41;10.43;;;6.63;;
73684;SDS011;61985;51.070;14.064;2023-06-22T03:06:06;17.35;;;6.68;;
73684;SDS011;61985;51.070;14.064;2023-06-22T03:08:31;10.30;;;6.38;;
73684;SDS011;61985;51.070;14.064;2023-06-22T03:10:57;17.48;;;6.88;;
73684;SDS011;61985;51.070;14.064;2023-06-22T03:13:22;12.73;;;6.82;;
73684;SDS011;61985;51.070;14.064;2023-06-22T03:15:48;11.57;;;6.43;;
73684;SDS011;61985;51.070;14.064;2023-06-22T03:18:13;12.73;;;6.53;;
73684;SDS011;61985;51.070;14.064;2023-06-22T03:20:40;12.35;;;6.30;;
73684;SDS011;61985;51.070;14.064;2023-06-22T03:23:06;13.35;;;6.47;;
73684;SDS011;61985;51.070;14.064;2023-06-22T03:25:31;11.48;;;5.97;;
73684;SDS011;61985;51.070;14.064;2023-06-22T03:27:56;12.98;;;6.50;;
73684;SDS011;61985;51.070;14.064;2023-06-22T03:30:22;11.02;;;6.47;;
73684;SDS011;61985;51.070;14.064;2023-06-22T03:32:47;13.57;;;6.68;;
73684;SDS011;61985;51.070;14.064;2023-06-22T03:35:12;11.63;;;6.65;;
73684;SDS011;61985;51.070;14.064;2023-06-22T03:37:39;12.38;;;7.22;;
73684;SDS011;61985;51.070;14.064;2023-06-22T03:40:04;10.85;;;6.78;;
73684;SDS011;61985;51.070;14.064;2023-06-22T03:42:30;11.57;;;6.82;;
73684;SDS011;61985;51.070;14.064;2023-06-22T03:44:56;11.43;;;7.38;;
73684;SDS011;61985;51.070;14.064;2023-06-22T03:47:22;16.45;;;8.27;;
73684;SDS011;61985;51.070;14.064;2023-06-22T03:49:47;13.45;;;8.23;;
73684;SDS011;61985;51.070;14.064;2023-06-22T03:52:13;11.25;;;7.63;;
73684;SDS011;61985;51.070;14.064;2023-06-22T03:54:38;15.60;;;7.72;;
73684;SDS011;61985;51.070;14.064;2023-06-22T03:57:03;11.23;;;7.22;;
73684;SDS011;61985;51.070;14.064;2023-06-22T03:59:29;14.95;;;7.82;;
73684;SDS011;61985;51.070;14.064;2023-06-22T04:01:54;15.38;;;7.25;;
73684;SDS011;61985;51.070;14.064;2023-06-22T04:04:20;11.48;;;7.32;;
73684;SDS011;61985;51.070;14.064;2023-06-22T04:06:45;18.13;;;7.85;;
73684;SDS011;61985;51.070;14.064;2023-06-22T04:09:11;15.38;;;8.07;;
73684;SDS011;61985;51.070;14.064;2023-06-22T04:11:37;18.67;;;9.05;;
73684;SDS011;61985;51.070;14.064;2023-06-22T04:14:02;16.45;;;8.07;;
73684;SDS011;61985;51.070;14.064;2023-06-22T04:16:28;14.02;;;7.60;;
73684;SDS011;61985;51.070;14.064;2023-06-22T04:18:53;16.73;;;8.18;;
73684;SDS011;61985;51.070;14.064;2023-06-22T04:21:18;16.80;;;7.75;;
73684;SDS011;61985;51.070;14.064;2023-06-22T04:23:46;14.98;;;7.70;;
73684;SDS011;61985;51.070;14.064;2023-06-22T04:26:12;15.68;;;7.80;;
73684;SDS011;61985;51.070;14.064;2023-06-22T04:28:39;16.05;;;8.25;;
73684;SDS011;61985;51.070;14.064;2023-06-22T04:31:05;13.15;;;7.38;;
73684;SDS011;61985;51.070;14.064;2023-06-22T04:33:30;11.52;;;8.15;;
73684;SDS011;61985;51.070;14.064;2023-06-22T04:35:56;13.50;;;7.60;;
73684;SDS011;61985;51.070;14.064;2023-06-22T04:38:22;14.07;;;7.93;;
73684;SDS011;61985;51.070;14.064;2023-06-22T04:40:48;13.80;;;8.20;;
73684;SDS011;61985;51.070;14.064;2023-06-22T04:43:13;14.02;;;7.53;;
73684;SDS011;61985;51.070;14.064;2023-06-22T04:45:39;18.17;;;7.97;;
73684;SDS011;61985;51.070;14.064;2023-06-22T04:48:04;13.30;;;7.63;;
73684;SDS011;61985;51.070;14.064;2023-06-22T04:50:30;13.07;;;7.75;;
73684;SDS011;61985;51.070;14.064;2023-06-22T04:52:56;12.88;;;7.78;;
73684;SDS011;61985;51.070;14.064;2023-06-22T04:55:21;17.35;;;7.95;;
73684;SDS011;61985;51.070;14.064;2023-06-22T04:57:47;13.77;;;7.35;;
73684;SDS011;61985;51.070;14.064;2023-06-22T05:00:16;12.25;;;7.32;;
73684;SDS011;61985;51.070;14.064;2023-06-22T05:02:47;13.93;;;7.47;;
73684;SDS011;61985;51.070;14.064;2023-06-22T05:05:13;13.77;;;7.25;;
73684;SDS011;61985;51.070;14.064;2023-06-22T05:07:39;13.77;;;7.80;;
73684;SDS011;61985;51.070;14.064;2023-06-22T05:10:08;14.18;;;7.35;;
73684;SDS011;61985;51.070;14.064;2023-06-22T05:12:37;11.70;;;8.32;;
73684;SDS011;61985;51.070;14.064;2023-06-22T05:15:03;10.70;;;7.00;;
73684;SDS011;61985;51.070;14.064;2023-06-22T05:17:30;10.23;;;7.65;;
73684;SDS011;61985;51.070;14.064;2023-06-22T05:19:55;14.40;;;8.30;;
73684;SDS011;61985;51.070;14.064;2023-06-22T05:22:20;11.70;;;8.77;;
73684;SDS011;61985;51.070;14.064;2023-06-22T05:24:46;12.00;;;8.57;;
73684;SDS011;61985;51.070;14.064;2023-06-22T05:27:11;11.25;;;8.00;;
73684;SDS011;61985;51.070;14.064;2023-06-22T05:29:37;13.20;;;8.85;;
73684;SDS011;61985;51.070;14.064;2023-06-22T05:32:03;17.17;;;9.45;;
73684;SDS011;61985;51.070;14.064;2023-06-22T05:34:28;14.85;;;9.00;;
73684;SDS011;61985;51.070;14.064;2023-06-22T05:36:54;12.05;;;8.75;;
73684;SDS011;61985;51.070;14.064;2023-06-22T05:39:19;11.23;;;8.80;;
73684;SDS011;61985;51.070;14.064;2023-06-22T05:41:45;11.30;;;8.40;;
73684;SDS011;61985;51.070;14.064;2023-06-22T05:44:10;12.18;;;8.70;;
73684;SDS011;61985;51.070;14.064;2023-06-22T05:46:36;12.40;;;7.53;;
73684;SDS011;61985;51.070;14.064;2023-06-22T05:56:45;13.32;;;8.82;;
73684;SDS011;61985;51.070;14.064;2023-06-22T05:59:10;14.43;;;8.82;;
73684;SDS011;61985;51.070;14.064;2023-06-22T06:01:35;11.93;;;8.77;;
73684;SDS011;61985;51.070;14.064;2023-06-22T06:04:01;13.85;;;9.07;;
73684;SDS011;61985;51.070;14.064;2023-06-22T06:06:30;12.10;;;8.50;;
73684;SDS011;61985;51.070;14.064;2023-06-22T06:08:55;13.10;;;8.90;;
73684;SDS011;61985;51.070;14.064;2023-06-22T06:11:30;19.63;;;10.02;;
73684;SDS011;61985;51.070;14.064;2023-06-22T06:13:55;11.77;;;8.45;;
73684;SDS011;61985;51.070;14.064;2023-06-22T06:16:21;12.73;;;8.88;;
73684;SDS011;61985;51.070;14.064;2023-06-22T06:18:47;13.88;;;8.88;;
73684;SDS011;61985;51.070;14.064;2023-06-22T06:21:14;12.38;;;9.45;;
73684;SDS011;61985;51.070;14.064;2023-06-22T06:23:40;11.48;;;9.30;;
73684;SDS011;61985;51.070;14.064;2023-06-22T06:26:05;14.20;;;9.60;;
73684;SDS011;61985;51.070;14.064;2023-06-22T06:28:32;11.55;;;8.52;;
73684;SDS011;61985;51.070;14.064;2023-06-22T06:30:58;12.48;;;8.65;;
73684;SDS011;61985;51.070;14.064;2023-06-22T06:33:23;12.95;;;9.10;;
73684;SDS011;61985;51.070;14.064;2023-06-22T06:35:49;12.98;;;9.68;;
73684;SDS011;61985;51.070;14.064;2023-06-22T06:38:14;11.25;;;8.60;;
73684;SDS011;61985;51.070;14.064;2023-06-22T06:40:40;12.65;;;9.35;;
73684;SDS011;61985;51.070;14.064;2023-06-22T06:43:05;11.95;;;9.50;;
73684;SDS011;61985;51.070;14.064;2023-06-22T06:45:31;12.45;;;9.85;;
73684;SDS011;61985;51.070;14.064;2023-06-22T06:47:58;11.50;;;9.02;;
73684;SDS011;61985;51.070;14.064;2023-06-22T06:50:23;10.85;;;9.38;;
73684;SDS011;61985;51.070;14.064;2023-06-22T06:52:48;18.55;;;10.90;;
73684;SDS011;61985;51.070;14.064;2023-06-22T06:55:15;18.90;;;9.82;;
73684;SDS011;61985;51.070;14.064;2023-06-22T12:33:47;10.80;;;7.28;;
73684;SDS011;61985;51.070;14.064;2023-06-22T12:36:13;11.65;;;7.47;;
73684;SDS011;61985;51.070;14.064;2023-06-22T12:38:38;11.85;;;7.53;;
73684;SDS011;61985;51.070;14.064;2023-06-22T12:41:04;10.45;;;7.05;;
73684;SDS011;61985;51.070;14.064;2023-06-22T12:43:29;9.18;;;6.85;;
73684;SDS011;61985;51.070;14.064;2023-06-22T12:51:05;10.82;;;7.13;;
73684;SDS011;61985;51.070;14.064;2023-06-22T12:53:33;11.48;;;7.65;;
73684;SDS011;61985;51.070;14.064;2023-06-22T12:55:59;9.40;;;6.82;;
73684;SDS011;61985;51.070;14.064;2023-06-22T12:58:25;9.63;;;7.40;;
73684;SDS011;61985;51.070;14.064;2023-06-22T13:00:50;11.27;;;7.43;;
73684;SDS011;61985;51.070;14.064;2023-06-22T13:03:15;9.85;;;6.68;;
73684;SDS011;61985;51.070;14.064;2023-06-22T13:05:46;9.75;;;7.22;;
73684;SDS011;61985;51.070;14.064;2023-06-22T13:08:12;12.15;;;7.93;;
73684;SDS011;61985;51.070;14.064;2023-06-22T13:10:38;11.25;;;7.13;;
73684;SDS011;61985;51.070;14.064;2023-06-22T13:13:04;10.75;;;7.70;;
73684;SDS011;61985;51.070;14.064;2023-06-22T13:15:31;12.77;;;8.43;;
73684;SDS011;61985;51.070;14.064;2023-06-22T13:20:40;12.35;;;7.40;;
73684;SDS011;61985;51.070;14.064;2023-06-22T13:25:41;10.93;;;7.70;;
73684;SDS011;61985;51.070;14.064;2023-06-22T13:28:41;11.30;;;7.68;;
73684;SDS011;61985;51.070;14.064;2023-06-22T13:34:39;12.20;;;7.20;;
73684;SDS011;61985;51.070;14.064;2023-06-22T13:40:31;11.90;;;7.78;;
73684;SDS011;61985;51.070;14.064;2023-06-22T13:42:56;11.10;;;7.40;;
73684;SDS011;61985;51.070;14.064;2023-06-22T13:45:22;11.43;;;7.05;;
73684;SDS011;61985;51.070;14.064;2023-06-22T13:47:47;13.20;;;7.28;;
73684;SDS011;61985;51.070;14.064;2023-06-22T13:50:13;11.80;;;6.93;;
73684;SDS011;61985;51.070;14.064;2023-06-22T13:52:38;11.23;;;7.78;;
73684;SDS011;61985;51.070;14.064;2023-06-22T13:55:04;11.40;;;7.43;;
73684;SDS011;61985;51.070;14.064;2023-06-22T13:57:32;10.23;;;7.57;;
73684;SDS011;61985;51.070;14.064;2023-06-22T13:59:58;9.65;;;6.88;;
73684;SDS011;61985;51.070;14.064;2023-06-22T14:02:25;9.75;;;7.93;;
73684;SDS011;61985;51.070;14.064;2023-06-22T14:04:51;10.15;;;7.50;;
73684;SDS011;61985;51.070;14.064;2023-06-22T14:07:16;9.18;;;6.90;;
73684;SDS011;61985;51.070;14.064;2023-06-22T14:09:42;10.45;;;7.68;;
73684;SDS011;61985;51.070;14.064;2023-06-22T14:12:07;10.82;;;7.47;;
73684;SDS011;61985;51.070;14.064;2023-06-22T14:14:33;10.93;;;7.32;;
73684;SDS011;61985;51.070;14.064;2023-06-22T14:16:59;12.57;;;7.30;;
73684;SDS011;61985;51.070;14.064;2023-06-22T14:19:24;9.75;;;7.50;;
73684;SDS011;61985;51.070;14.064;2023-06-22T14:21:50;10.35;;;7.50;;
73684;SDS011;61985;51.070;14.064;2023-06-22T14:24:15;10.35;;;7.55;;
73684;SDS011;61985;51.070;14.064;2023-06-22T14:26:41;9.02;;;7.10;;
73684;SDS011;61985;51.070;14.064;2023-06-22T14:29:06;11.35;;;7.38;;
73684;SDS011;61985;51.070;14.064;2023-06-22T14:37:06;13.75;;;7.80;;
73684;SDS011;61985;51.070;14.064;2023-06-22T14:39:32;11.50;;;7.97;;
73684;SDS011;61985;51.070;14.064;2023-06-22T14:41:59;16.55;;;7.80;;
73684;SDS011;61985;51.070;14.064;2023-06-22T14:44:37;9.27;;;8.02;;
73684;SDS011;61985;51.070;14.064;2023-06-22T15:56:03;13.18;;;9.02;;
73684;SDS011;61985;51.070;14.064;2023-06-22T15:58:29;11.77;;;8.20;;
73684;SDS011;61985;51.070;14.064;2023-06-22T16:00:54;11.57;;;8.80;;
73684;SDS011;61985;51.070;14.064;2023-06-22T16:03:20;12.15;;;8.98;;
73684;SDS011;61985;51.070;14.064;2023-06-22T16:05:46;11.43;;;8.35;;
73684;SDS011;61985;51.070;14.064;2023-06-22T16:08:11;11.43;;;8.60;;
73684;SDS011;61985;51.070;14.064;2023-06-22T16:10:38;12.32;;;8.48;;
73684;SDS011;61985;51.070;14.064;2023-06-22T16:13:04;14.55;;;8.63;;
73684;SDS011;61985;51.070;14.064;2023-06-22T16:15:29;11.90;;;8.98;;
73684;SDS011;61985;51.070;14.064;2023-06-22T16:17:54;10.70;;;8.30;;
73684;SDS011;61985;51.070;14.064;2023-06-22T16:20:20;10.20;;;8.35;;
73684;SDS011;61985;51.070;14.064;2023-06-22T16:22:46;11.85;;;8.73;;
73684;SDS011;61985;51.070;14.064;2023-06-22T16:25:12;13.82;;;8.35;;
73684;SDS011;61985;51.070;14.064;2023-06-22T16:27:37;12.98;;;8.18;;
73684;SDS011;61985;51.070;14.064;2023-06-22T16:30:04;15.63;;;9.32;;
73684;SDS011;61985;51.070;14.064;2023-06-22T16:32:31;16.20;;;9.50;;
73684;SDS011;61985;51.070;14.064;2023-06-22T16:34:56;13.00;;;8.25;;
73684;SDS011;61985;51.070;14.064;2023-06-22T16:37:22;14.82;;;8.35;;
73684;SDS011;61985;51.070;14.064;2023-06-22T16:39:49;15.07;;;9.50;;
73684;SDS011;61985;51.070;14.064;2023-06-22T16:42:15;16.52;;;8.90;;
73684;SDS011;61985;51.070;14.064;2023-06-22T16:44:41;13.80;;;9.00;;
73684;SDS011;61985;51.070;14.064;2023-06-22T16:47:07;15.70;;;8.63;;
73684;SDS011;61985;51.070;14.064;2023-06-22T16:49:33;17.48;;;8.52;;
73684;SDS011;61985;51.070;14.064;2023-06-22T16:52:00;11.82;;;8.65;;
73684;SDS011;61985;51.070;14.064;2023-06-22T16:54:28;12.32;;;8.60;;
73684;SDS011;61985;51.070;14.064;2023-06-22T16:56:54;12.45;;;8.68;;
73684;SDS011;61985;51.070;14.064;2023-06-22T16:59:20;11.75;;;8.57;;
73684;SDS011;61985;51.070;14.064;2023-06-22T17:01:52;12.02;;;8.77;;
73684;SDS011;61985;51.070;14.064;2023-06-22T17:04:23;11.65;;;9.02;;
73684;SDS011;61985;51.070;14.064;2023-06-22T17:06:54;13.02;;;9.10;;
73684;SDS011;61985;51.070;14.064;2023-06-22T17:09:24;11.32;;;8.68;;
73684;SDS011;61985;51.070;14.064;2023-06-22T17:11:51;11.85;;;9.27;;
73684;SDS011;61985;51.070;14.064;2023-06-22T17:14:18;13.85;;;8.70;;
73684;SDS011;61985;51.070;14.064;2023-06-22T17:16:44;14.98;;;9.57;;
73684;SDS011;61985;51.070;14.064;2023-06-22T17:19:11;13.20;;;9.00;;
73684;SDS011;61985;51.070;14.064;2023-06-22T17:21:37;14.88;;;9.50;;
73684;SDS011;61985;51.070;14.064;2023-06-22T17:24:14;14.05;;;8.90;;
73684;SDS011;61985;51.070;14.064;2023-06-22T17:27:02;10.48;;;8.68;;
73684;SDS011;61985;51.070;14.064;2023-06-22T17:29:28;12.75;;;9.23;;
73684;SDS011;61985;51.070;14.064;2023-06-22T17:32:03;11.65;;;8.70;;
73684;SDS011;61985;51.070;14.064;2023-06-22T17:34:29;13.52;;;9.10;;
73684;SDS011;61985;51.070;14.064;2023-06-22T17:36:56;12.63;;;8.63;;
73684;SDS011;61985;51.070;14.064;2023-06-22T17:39:27;12.43;;;8.98;;
73684;SDS011;61985;51.070;14.064;2023-06-22T17:41:56;11.77;;;8.55;;
73684;SDS011;61985;51.070;14.064;2023-06-22T17:46:51;13.27;;;9.15;;
73684;SDS011;61985;51.070;14.064;2023-06-22T17:49:18;13.05;;;9.32;;
73684;SDS011;61985;51.070;14.064;2023-06-22T17:51:43;15.25;;;9.70;;
73684;SDS011;61985;51.070;14.064;2023-06-22T17:54:10;11.90;;;9.45;;
73684;SDS011;61985;51.070;14.064;2023-06-22T17:56:36;12.30;;;9.63;;
73684;SDS011;61985;51.070;14.064;2023-06-22T17:59:02;12.77;;;9.82;;
73684;SDS011;61985;51.070;14.064;2023-06-22T18:01:28;13.60;;;9.57;;
73684;SDS011;61985;51.070;14.064;2023-06-22T18:03:59;15.02;;;9.68;;
73684;SDS011;61985;51.070;14.064;2023-06-22T18:06:27;15.57;;;9.45;;
73684;SDS011;61985;51.070;14.064;2023-06-22T18:08:59;13.13;;;9.43;;
73684;SDS011;61985;51.070;14.064;2023-06-22T18:11:27;14.75;;;9.82;;
73684;SDS011;61985;51.070;14.064;2023-06-22T18:13:56;13.68;;;9.65;;
73684;SDS011;61985;51.070;14.064;2023-06-22T18:16:22;14.95;;;10.27;;
73684;SDS011;61985;51.070;14.064;2023-06-22T18:18:50;16.38;;;10.18;;
73684;SDS011;61985;51.070;14.064;2023-06-22T18:21:16;11.75;;;10.10;;
73684;SDS011;61985;51.070;14.064;2023-06-22T20:22:40;17.08;;;9.68;;
73684;SDS011;61985;51.070;14.064;2023-06-22T20:25:06;12.25;;;9.23;;
73684;SDS011;61985;51.070;14.064;2023-06-22T20:27:32;14.45;;;9.70;;
73684;SDS011;61985;51.070;14.064;2023-06-22T22:49:33;18.00;;;12.85;;
73684;SDS011;61985;51.070;14.064;2023-06-22T22:51:58;18.92;;;12.77;;
73684;SDS011;61985;51.070;14.064;2023-06-22T22:54:23;19.00;;;12.23;;
73684;SDS011;61985;51.070;14.064;2023-06-22T22:56:50;23.80;;;13.60;;
73684;SDS011;61985;51.070;14.064;2023-06-22T22:59:15;19.05;;;13.85;;
73684;SDS011;61985;51.070;14.064;2023-06-22T23:01:40;23.30;;;14.65;;
73684;SDS011;61985;51.070;14.064;2023-06-22T23:04:06;26.88;;;14.48;;
73684;SDS011;61985;51.070;14.064;2023-06-22T23:06:31;18.80;;;13.35;;
73684;SDS011;61985;51.070;14.064;2023-06-22T23:08:56;20.88;;;14.05;;
73684;SDS011;61985;51.070;14.064;2023-06-22T23:11:23;18.70;;;14.20;;
73684;SDS011;61985;51.070;14.064;2023-06-22T23:13:49;19.33;;;13.98;;
73684;SDS011;61985;51.070;14.064;2023-06-22T23:16:14;23.13;;;15.55;;
73684;SDS011;61985;51.070;14.064;2023-06-22T23:18:39;22.42;;;14.80;;
73684;SDS011;61985;51.070;14.064;2023-06-22T23:21:06;21.83;;;14.10;;
73684;SDS011;61985;51.070;14.064;2023-06-22T23:23:32;23.98;;;15.15;;
73684;SDS011;61985;51.070;14.064;2023-06-22T23:25:58;25.95;;;11.85;;
73684;SDS011;61985;51.070;14.064;2023-06-22T23:28:23;14.20;;;3.88;;
73684;SDS011;61985;51.070;14.064;2023-06-22T23:30:49;8.82;;;2.92;;
73684;SDS011;61985;51.070;14.064;2023-06-22T23:33:14;7.82;;;2.30;;
73684;SDS011;61985;51.070;14.064;2023-06-22T23:35:40;8.88;;;2.60;;
73684;SDS011;61985;51.070;14.064;2023-06-22T23:38:05;7.07;;;2.40;;
73684;SDS011;61985;51.070;14.064;2023-06-22T23:40:34;10.02;;;2.47;;
73684;SDS011;61985;51.070;14.064;2023-06-22T23:43:01;10.10;;;2.80;;
73684;SDS011;61985;51.070;14.064;2023-06-22T23:45:28;11.05;;;2.60;;
73684;SDS011;61985;51.070;14.064;2023-06-22T23:47:53;12.73;;;2.45;;
73684;SDS011;61985;51.070;14.064;2023-06-22T23:50:19;8.43;;;2.50;;
73684;SDS011;61985;51.070;14.064;2023-06-22T23:52:45;7.88;;;2.35;;
73684;SDS011;61985;51.070;14.064;2023-06-22T23:55:13;6.93;;;1.80;;
73684;SDS011;61985;51.070;14.064;2023-06-22T23:57:39;9.73;;;2.55;;
